createdAt,value
2023-03-29T00:01:36.629Z,44.54
2023-03-29T00:04:03.473Z,44.07
2023-03-29T00:06:30.140Z,44.42
2023-03-29T00:08:56.706Z,44.95
2023-03-29T00:11:23.276Z,45.57
2023-03-29T00:13:49.817Z,45.71
2023-03-29T00:16:16.410Z,46.09
2023-03-29T00:18:42.991Z,45.49
2023-03-29T00:21:09.671Z,46.31
2023-03-29T00:23:36.411Z,45.88
2023-03-29T00:26:03.834Z,45.21
2023-03-29T00:28:31.438Z,45.79
2023-03-29T00:30:58.152Z,46.21
2023-03-29T00:33:24.924Z,45.15
2023-03-29T00:35:51.706Z,45.41
2023-03-29T00:38:18.310Z,45.78
2023-03-29T00:40:44.885Z,45.68
2023-03-29T00:43:11.654Z,45.51
2023-03-29T00:45:38.285Z,45.93
2023-03-29T00:48:04.881Z,45.42
2023-03-29T00:50:31.480Z,47.26
2023-03-29T00:52:58.225Z,46.54
2023-03-29T00:55:24.888Z,47.15
2023-03-29T00:57:51.469Z,46.40
2023-03-29T01:00:18.069Z,47.03
2023-03-29T01:02:44.754Z,46.74
2023-03-29T01:05:11.301Z,46.34
2023-03-29T01:07:37.876Z,47.91
2023-03-29T01:10:04.473Z,46.99
2023-03-29T01:12:31.113Z,46.73
2023-03-29T01:14:57.672Z,47.08
2023-03-29T01:17:24.285Z,47.12
2023-03-29T01:19:50.976Z,46.48
2023-03-29T01:22:17.561Z,47.51
2023-03-29T01:24:44.133Z,46.94
2023-03-29T01:27:10.722Z,47.58
2023-03-29T01:29:37.275Z,47.43
2023-03-29T01:32:03.908Z,47.33
2023-03-29T01:34:30.563Z,47.58
2023-03-29T01:36:57.203Z,47.80
2023-03-29T01:39:23.913Z,47.28
2023-03-29T01:41:50.473Z,46.69
2023-03-29T01:44:17.086Z,47.37
2023-03-29T01:46:43.668Z,47.19
2023-03-29T01:49:10.268Z,47.47
2023-03-29T01:51:36.819Z,47.27
2023-03-29T01:54:03.549Z,48.42
2023-03-29T01:56:30.141Z,47.92
2023-03-29T01:58:56.737Z,47.27
2023-03-29T02:01:23.341Z,48.23
2023-03-29T02:03:50.106Z,48.05
2023-03-29T02:06:16.701Z,48.61
2023-03-29T02:08:43.375Z,48.38
2023-03-29T02:11:09.990Z,47.83
2023-03-29T02:13:36.587Z,48.84
2023-03-29T02:16:03.331Z,48.46
2023-03-29T02:18:29.949Z,48.12
2023-03-29T02:20:56.526Z,48.17
2023-03-29T02:23:23.163Z,47.70
2023-03-29T02:25:49.809Z,48.34
2023-03-29T02:28:16.377Z,47.90
2023-03-29T02:30:43.056Z,48.82
2023-03-29T02:33:09.671Z,48.62
2023-03-29T02:35:36.382Z,47.89
2023-03-29T02:38:03.044Z,49.23
2023-03-29T02:40:29.641Z,49.68
2023-03-29T02:42:56.284Z,49.45
2023-03-29T02:45:22.869Z,48.89
2023-03-29T02:47:49.660Z,49.44
2023-03-29T02:50:16.368Z,50.04
2023-03-29T02:52:43.049Z,48.92
2023-03-29T02:55:09.684Z,49.05
2023-03-29T02:57:36.262Z,49.76
2023-03-29T03:00:02.947Z,49.92
2023-03-29T03:02:29.891Z,49.46
2023-03-29T03:04:56.442Z,49.80
2023-03-29T03:07:23.044Z,49.05
2023-03-29T03:09:49.593Z,48.80
2023-03-29T03:12:16.205Z,48.75
2023-03-29T03:14:42.781Z,48.73
2023-03-29T03:17:09.380Z,48.43
2023-03-29T03:19:35.919Z,48.66
2023-03-29T03:22:02.466Z,49.31
2023-03-29T03:24:29.027Z,48.37
2023-03-29T03:26:55.595Z,48.80
2023-03-29T03:29:22.138Z,49.34
2023-03-29T03:31:48.751Z,49.72
2023-03-29T03:34:15.366Z,49.90
2023-03-29T03:36:42.017Z,49.29
2023-03-29T03:39:08.592Z,48.86
2023-03-29T03:41:35.150Z,49.25
2023-03-29T03:44:01.758Z,48.30
2023-03-29T03:46:29.587Z,49.09
2023-03-29T03:48:56.928Z,49.36
2023-03-29T03:51:23.512Z,50.23
2023-03-29T03:53:50.112Z,49.65
2023-03-29T03:56:16.734Z,49.34
2023-03-29T03:58:43.334Z,48.61
2023-03-29T04:01:10.017Z,48.49
2023-03-29T04:03:36.718Z,48.30
2023-03-29T04:06:03.343Z,48.26
2023-03-29T04:08:29.896Z,47.93
2023-03-29T04:10:56.520Z,47.92
2023-03-29T04:13:23.085Z,48.07
2023-03-29T04:15:49.721Z,47.59
2023-03-29T04:18:16.498Z,47.96
2023-03-29T04:20:43.202Z,47.50
2023-03-29T04:23:09.765Z,47.60
2023-03-29T04:25:36.327Z,47.79
2023-03-29T04:28:02.944Z,48.19
2023-03-29T04:30:29.571Z,47.69
2023-03-29T04:32:56.299Z,49.31
2023-03-29T04:35:23.015Z,48.79
2023-03-29T04:37:49.682Z,48.35
2023-03-29T04:40:16.213Z,47.66
2023-03-29T04:42:42.788Z,48.20
2023-03-29T04:45:09.389Z,48.68
2023-03-29T04:47:36.053Z,48.00
2023-03-29T04:50:02.663Z,49.28
2023-03-29T04:52:29.228Z,48.87
2023-03-29T04:54:55.843Z,49.52
2023-03-29T04:57:22.493Z,49.51
2023-03-29T04:59:49.170Z,50.34
2023-03-29T05:02:15.729Z,50.54
2023-03-29T05:04:42.361Z,49.68
2023-03-29T05:07:08.972Z,48.50
2023-03-29T05:09:35.682Z,48.10
2023-03-29T05:12:02.347Z,47.91
2023-03-29T05:14:29.005Z,48.37
2023-03-29T05:16:55.586Z,48.48
2023-03-29T05:19:22.176Z,48.38
2023-03-29T05:21:48.761Z,48.36
2023-03-29T05:24:15.375Z,48.41
2023-03-29T05:26:42.015Z,47.98
2023-03-29T05:29:08.586Z,47.35
2023-03-29T05:31:35.194Z,47.35
2023-03-29T05:34:02.144Z,47.13
2023-03-29T05:36:28.727Z,47.25
2023-03-29T05:38:55.311Z,47.44
2023-03-29T05:41:21.923Z,46.05
2023-03-29T05:43:48.540Z,47.42
2023-03-29T05:46:15.238Z,47.71
2023-03-29T05:48:41.892Z,47.13
2023-03-29T05:51:10.592Z,47.04
2023-03-29T05:53:37.244Z,46.86
2023-03-29T05:56:03.878Z,46.93
2023-03-29T05:58:30.642Z,47.24
2023-03-29T06:00:57.239Z,47.51
2023-03-29T06:03:24.039Z,47.94
2023-03-29T06:05:50.723Z,47.83
2023-03-29T06:08:17.315Z,47.68
2023-03-29T06:10:44.003Z,46.98
2023-03-29T06:13:10.569Z,47.22
2023-03-29T06:15:37.173Z,46.84
2023-03-29T06:18:03.860Z,46.22
2023-03-29T06:20:30.507Z,45.24
2023-03-29T06:22:57.180Z,45.70
2023-03-29T06:25:23.757Z,46.69
2023-03-29T06:27:50.450Z,46.29
2023-03-29T06:30:17.108Z,46.02
2023-03-29T06:32:43.796Z,45.44
2023-03-29T06:35:10.437Z,45.00
2023-03-29T06:37:37.015Z,44.92
2023-03-29T06:40:03.760Z,44.94
2023-03-29T06:42:30.423Z,45.18
2023-03-29T06:44:57.020Z,44.50
2023-03-29T06:47:23.647Z,44.74
2023-03-29T06:49:50.557Z,44.51
2023-03-29T06:52:17.198Z,44.71
2023-03-29T06:54:43.796Z,44.80
2023-03-29T06:57:10.426Z,44.51
2023-03-29T06:59:37.066Z,43.77
2023-03-29T07:02:03.720Z,43.55
2023-03-29T07:04:30.399Z,42.88
2023-03-29T07:06:57.025Z,43.11
2023-03-29T07:09:23.610Z,43.13
2023-03-29T07:11:50.162Z,42.57
2023-03-29T07:14:16.726Z,43.28
2023-03-29T07:16:43.355Z,42.25
2023-03-29T07:19:10.418Z,41.90
2023-03-29T07:21:38.043Z,42.61
2023-03-29T07:24:04.795Z,42.47
2023-03-29T07:26:31.356Z,42.80
2023-03-29T07:28:57.953Z,43.66
2023-03-29T07:31:24.530Z,43.12
2023-03-29T07:33:51.190Z,43.15
2023-03-29T07:36:17.901Z,42.64
2023-03-29T07:38:44.451Z,42.72
2023-03-29T07:41:11.041Z,43.74
2023-03-29T07:43:37.594Z,44.25
2023-03-29T07:46:04.227Z,43.87
2023-03-29T07:48:30.807Z,43.41
2023-03-29T07:50:57.416Z,42.43
2023-03-29T07:53:23.999Z,42.58
2023-03-29T07:55:50.563Z,42.45
2023-03-29T07:58:17.197Z,41.79
2023-03-29T08:00:43.891Z,41.45
2023-03-29T08:03:10.606Z,42.35
2023-03-29T08:05:41.482Z,41.99
2023-03-29T08:08:08.657Z,41.70
2023-03-29T08:10:35.216Z,41.42
2023-03-29T08:13:01.788Z,41.44
2023-03-29T08:15:28.393Z,41.04
2023-03-29T08:17:55.063Z,41.63
2023-03-29T08:20:21.712Z,41.80
2023-03-29T08:22:48.308Z,41.78
2023-03-29T08:25:14.868Z,40.63
2023-03-29T08:27:41.463Z,40.76
2023-03-29T08:30:08.085Z,40.09
2023-03-29T08:32:34.705Z,39.94
2023-03-29T08:35:01.323Z,40.64
2023-03-29T08:37:27.969Z,39.04
2023-03-29T08:39:54.526Z,38.37
2023-03-29T08:42:21.395Z,38.82
2023-03-29T08:44:47.996Z,38.91
2023-03-29T08:47:14.559Z,38.33
2023-03-29T08:49:41.136Z,38.46
2023-03-29T08:52:07.728Z,37.48
2023-03-29T08:54:34.334Z,38.12
2023-03-29T08:57:01.614Z,38.26
2023-03-29T08:59:28.211Z,38.85
2023-03-29T09:01:54.821Z,37.78
2023-03-29T09:04:21.440Z,38.01
2023-03-29T09:06:48.011Z,38.98
2023-03-29T09:09:14.665Z,37.59
2023-03-29T09:11:41.211Z,36.95
2023-03-29T09:14:07.765Z,36.70
2023-03-29T09:16:34.502Z,36.92
2023-03-29T09:19:01.167Z,37.40
2023-03-29T09:21:27.753Z,36.28
2023-03-29T09:23:55.711Z,36.31
2023-03-29T09:26:22.520Z,37.35
2023-03-29T09:28:49.082Z,36.79
2023-03-29T09:31:15.767Z,36.49
2023-03-29T09:33:42.385Z,37.54
2023-03-29T09:36:09.057Z,37.62
2023-03-29T09:38:35.691Z,37.20
2023-03-29T09:41:02.485Z,36.90
2023-03-29T09:43:29.333Z,36.43
2023-03-29T09:45:56.075Z,36.35
2023-03-29T09:48:22.766Z,37.11
2023-03-29T09:50:49.339Z,36.29
2023-03-29T09:53:16.025Z,35.46
2023-03-29T09:55:42.611Z,36.61
2023-03-29T09:58:09.339Z,36.91
2023-03-29T10:00:35.915Z,36.56
2023-03-29T10:03:02.581Z,36.37
2023-03-29T10:05:29.334Z,36.71
2023-03-29T10:07:55.955Z,35.87
2023-03-29T10:10:22.548Z,35.72
2023-03-29T10:12:49.147Z,35.65
2023-03-29T10:15:26.801Z,35.25
2023-03-29T10:17:56.165Z,35.33
2023-03-29T10:20:22.759Z,34.67
2023-03-29T10:22:49.458Z,35.80
2023-03-29T10:25:16.061Z,35.21
2023-03-29T10:27:42.612Z,35.04
2023-03-29T10:30:09.186Z,35.09
2023-03-29T10:32:35.821Z,34.25
2023-03-29T10:35:02.417Z,34.44
2023-03-29T10:37:29.018Z,34.99
2023-03-29T10:39:55.586Z,34.15
2023-03-29T10:42:22.175Z,35.09
2023-03-29T10:44:48.713Z,34.44
2023-03-29T10:47:15.303Z,34.85
2023-03-29T10:49:41.872Z,34.25
2023-03-29T10:52:08.474Z,34.73
2023-03-29T10:54:35.043Z,34.65
2023-03-29T10:57:01.640Z,34.02
2023-03-29T10:59:28.236Z,34.07
2023-03-29T11:01:54.839Z,34.15
2023-03-29T11:04:21.448Z,34.99
2023-03-29T11:06:48.045Z,34.34
2023-03-29T11:09:14.616Z,33.66
2023-03-29T11:11:41.209Z,34.23
2023-03-29T11:14:07.924Z,33.74
2023-03-29T11:16:34.522Z,32.70
2023-03-29T11:19:01.140Z,31.33
2023-03-29T11:21:27.743Z,32.87
2023-03-29T11:23:54.358Z,33.22
2023-03-29T11:26:20.917Z,33.58
2023-03-29T11:28:47.472Z,32.96
2023-03-29T11:31:14.135Z,31.98
2023-03-29T11:33:40.713Z,32.06
2023-03-29T11:36:07.378Z,32.88
2023-03-29T11:38:33.977Z,32.54
2023-03-29T11:41:00.791Z,31.05
2023-03-29T11:43:27.524Z,32.39
2023-03-29T11:45:54.080Z,32.23
2023-03-29T11:48:20.658Z,31.63
2023-03-29T11:50:47.230Z,31.67
2023-03-29T11:53:13.805Z,31.77
2023-03-29T11:55:40.415Z,31.25
2023-03-29T11:58:06.976Z,32.05
2023-03-29T12:00:33.557Z,31.54
2023-03-29T12:03:00.355Z,28.32
2023-03-29T12:05:27.012Z,29.03
2023-03-29T12:07:53.583Z,30.53
2023-03-29T12:10:20.152Z,29.22
2023-03-29T12:12:46.784Z,29.93
2023-03-29T12:15:13.400Z,29.19
2023-03-29T12:17:40.035Z,29.09
2023-03-29T12:20:06.640Z,28.44
2023-03-29T12:22:33.250Z,27.56
2023-03-29T12:24:59.796Z,25.87
2023-03-29T12:27:26.480Z,28.21
2023-03-29T12:29:53.170Z,30.04
2023-03-29T12:32:19.862Z,29.89
2023-03-29T12:34:46.597Z,28.91
2023-03-29T12:37:13.229Z,30.04
2023-03-29T12:39:39.790Z,30.02
2023-03-29T12:42:06.355Z,29.82
2023-03-29T12:44:32.985Z,30.19
2023-03-29T12:46:59.588Z,28.10
2023-03-29T12:49:26.170Z,28.93
2023-03-29T12:51:52.749Z,28.04
2023-03-29T12:54:19.352Z,27.70
2023-03-29T12:56:45.914Z,29.52
2023-03-29T12:59:12.519Z,29.61
2023-03-29T13:01:39.244Z,28.90
2023-03-29T13:04:05.965Z,28.47
2023-03-29T13:06:32.520Z,29.75
2023-03-29T13:08:59.254Z,28.37
2023-03-29T13:11:25.823Z,28.43
2023-03-29T13:13:52.422Z,28.65
2023-03-29T13:16:19.021Z,28.05
2023-03-29T13:18:45.579Z,29.87
2023-03-29T13:21:12.171Z,29.82
2023-03-29T13:23:38.752Z,29.79
2023-03-29T13:26:05.485Z,28.43
2023-03-29T13:28:32.180Z,28.04
2023-03-29T13:30:58.774Z,26.79
2023-03-29T13:33:25.365Z,28.13
2023-03-29T13:35:51.959Z,27.77
2023-03-29T13:38:18.629Z,27.88
2023-03-29T13:40:45.177Z,27.62
2023-03-29T13:43:11.791Z,27.63
2023-03-29T13:45:38.355Z,27.97
2023-03-29T13:48:05.833Z,27.93
2023-03-29T13:50:32.914Z,27.78
2023-03-29T13:52:59.544Z,28.12
2023-03-29T13:55:26.113Z,27.99
2023-03-29T13:57:52.780Z,27.56
2023-03-29T14:00:19.386Z,27.93
2023-03-29T14:02:48.721Z,28.44
2023-03-29T14:05:15.916Z,27.35
2023-03-29T14:07:42.496Z,28.62
2023-03-29T14:10:09.096Z,28.45
2023-03-29T14:12:35.684Z,28.33
2023-03-29T14:15:02.291Z,27.09
2023-03-29T14:17:28.948Z,28.38
2023-03-29T14:19:55.516Z,26.78
2023-03-29T14:22:22.093Z,27.91
2023-03-29T14:24:48.663Z,27.96
2023-03-29T14:27:15.275Z,28.63
2023-03-29T14:29:41.824Z,27.80
2023-03-29T14:32:08.541Z,26.89
2023-03-29T14:34:35.172Z,27.42
2023-03-29T14:37:01.796Z,27.81
2023-03-29T14:39:28.437Z,28.40
2023-03-29T14:41:55.032Z,27.56
2023-03-29T14:44:21.627Z,28.51
2023-03-29T14:46:48.205Z,28.68
2023-03-29T14:49:14.788Z,28.81
2023-03-29T14:51:43.743Z,29.22
2023-03-29T14:54:10.340Z,29.15
2023-03-29T14:56:36.916Z,28.00
2023-03-29T14:59:03.525Z,28.45
2023-03-29T15:01:30.151Z,28.40
2023-03-29T15:03:56.857Z,29.09
2023-03-29T15:06:23.549Z,29.32
2023-03-29T15:09:03.745Z,28.26
2023-03-29T15:11:31.412Z,29.20
2023-03-29T15:13:58.049Z,27.58
2023-03-29T15:16:24.718Z,27.85
2023-03-29T15:18:51.301Z,28.13
2023-03-29T15:21:18.196Z,28.86
2023-03-29T15:23:44.856Z,28.00
2023-03-29T15:26:11.480Z,29.79
2023-03-29T15:28:38.040Z,30.66
2023-03-29T15:31:08.246Z,29.55
2023-03-29T15:33:35.272Z,30.58
2023-03-29T15:36:02.288Z,29.77
2023-03-29T15:38:36.734Z,28.08
2023-03-29T15:41:10.234Z,29.07
2023-03-29T15:43:36.829Z,28.47
2023-03-29T15:46:03.936Z,28.16
2023-03-29T15:48:30.810Z,28.40
2023-03-29T15:50:59.244Z,29.23
2023-03-29T15:53:28.129Z,29.17
2023-03-29T15:55:54.756Z,29.25
2023-03-29T15:58:21.423Z,30.43
2023-03-29T16:00:48.020Z,30.87
2023-03-29T16:03:14.716Z,30.46
2023-03-29T16:05:41.330Z,30.69
2023-03-29T16:08:07.928Z,30.91
2023-03-29T16:10:34.473Z,31.31
2023-03-29T16:13:01.058Z,31.89
2023-03-29T16:15:27.608Z,31.61
2023-03-29T16:17:54.250Z,31.75
2023-03-29T16:20:20.844Z,32.34
2023-03-29T16:22:47.394Z,32.23
2023-03-29T16:25:14.003Z,31.95
2023-03-29T16:27:40.617Z,31.90
2023-03-29T16:30:07.198Z,32.63
2023-03-29T16:32:33.825Z,32.30
2023-03-29T16:35:00.433Z,32.56
2023-03-29T16:37:26.997Z,32.04
2023-03-29T16:39:53.574Z,32.29
2023-03-29T16:42:20.114Z,33.16
2023-03-29T16:44:46.684Z,32.91
2023-03-29T16:47:13.391Z,32.19
2023-03-29T16:49:40.286Z,31.98
2023-03-29T16:52:07.124Z,31.78
2023-03-29T16:54:33.684Z,33.39
2023-03-29T16:57:00.356Z,33.66
2023-03-29T16:59:26.937Z,33.08
2023-03-29T17:01:53.564Z,33.98
2023-03-29T17:04:20.246Z,33.34
2023-03-29T17:06:47.032Z,34.07
2023-03-29T17:09:13.605Z,33.90
2023-03-29T17:11:40.164Z,34.13
2023-03-29T17:14:06.789Z,34.50
2023-03-29T17:16:33.457Z,34.12
2023-03-29T17:19:00.318Z,34.07
2023-03-29T17:21:27.137Z,34.52
2023-03-29T17:23:53.755Z,34.33
2023-03-29T17:26:20.326Z,34.10
2023-03-29T17:28:46.950Z,34.05
2023-03-29T17:31:13.618Z,34.35
2023-03-29T17:33:40.191Z,34.21
2023-03-29T17:36:07.320Z,34.21
2023-03-29T17:38:34.497Z,34.41
2023-03-29T17:41:01.144Z,34.58
2023-03-29T17:43:27.768Z,34.69
2023-03-29T17:45:54.322Z,34.18
2023-03-29T17:48:21.085Z,34.38
2023-03-29T17:50:47.726Z,33.88
2023-03-29T17:53:14.280Z,34.30
2023-03-29T17:55:40.893Z,34.32
2023-03-29T17:58:07.471Z,34.47
2023-03-29T18:00:34.177Z,34.72
2023-03-29T18:03:00.830Z,35.01
2023-03-29T18:05:27.396Z,35.09
2023-03-29T18:07:53.955Z,34.78
2023-03-29T18:10:20.845Z,35.07
2023-03-29T18:12:47.470Z,35.13
2023-03-29T18:15:14.001Z,35.63
2023-03-29T18:17:40.598Z,36.67
2023-03-29T18:20:07.209Z,36.14
2023-03-29T18:22:33.771Z,36.70
2023-03-29T18:25:00.382Z,37.07
2023-03-29T18:27:26.981Z,36.92
2023-03-29T18:29:53.549Z,37.40
2023-03-29T18:32:20.196Z,36.71
2023-03-29T18:34:46.829Z,37.54
2023-03-29T18:37:13.446Z,37.84
2023-03-29T18:39:40.010Z,37.90
2023-03-29T18:42:06.591Z,38.39
2023-03-29T18:44:33.140Z,39.16
2023-03-29T18:46:59.737Z,38.82
2023-03-29T18:49:26.299Z,39.50
2023-03-29T18:51:52.890Z,39.24
2023-03-29T18:54:19.464Z,40.50
2023-03-29T18:56:46.127Z,40.09
2023-03-29T18:59:12.736Z,39.85
2023-03-29T19:01:39.364Z,40.34
2023-03-29T19:04:05.955Z,41.03
2023-03-29T19:06:32.530Z,40.76
2023-03-29T19:08:59.187Z,41.91
2023-03-29T19:11:27.713Z,42.52
2023-03-29T19:13:55.593Z,42.27
2023-03-29T19:16:22.446Z,42.45
2023-03-29T19:18:49.126Z,42.51
2023-03-29T19:21:15.735Z,42.39
2023-03-29T19:23:42.309Z,43.75
2023-03-29T19:26:08.901Z,43.27
2023-03-29T19:28:35.772Z,43.12
2023-03-29T19:31:02.426Z,43.36
2023-03-29T19:33:29.046Z,44.04
2023-03-29T19:35:55.672Z,43.87
2023-03-29T19:38:22.405Z,44.11
2023-03-29T19:40:48.957Z,44.17
2023-03-29T19:43:15.536Z,44.48
2023-03-29T19:45:42.102Z,44.53
2023-03-29T19:48:19.445Z,45.13
2023-03-29T19:50:48.308Z,45.10
2023-03-29T19:53:14.888Z,45.69
2023-03-29T19:55:41.473Z,45.54
2023-03-29T19:58:08.011Z,45.79
2023-03-29T20:00:34.601Z,45.38
2023-03-29T20:03:01.302Z,44.66
2023-03-29T20:05:27.945Z,45.12
2023-03-29T20:07:54.509Z,44.70
2023-03-29T20:10:21.142Z,45.31
2023-03-29T20:12:47.739Z,44.65
2023-03-29T20:15:14.512Z,44.62
2023-03-29T20:17:41.183Z,44.76
2023-03-29T20:20:07.766Z,44.69
2023-03-29T20:22:34.352Z,44.48
2023-03-29T20:25:00.937Z,44.51
2023-03-29T20:27:27.477Z,45.46
2023-03-29T20:29:54.039Z,45.63
2023-03-29T20:32:20.829Z,45.68
2023-03-29T20:34:47.533Z,45.49
2023-03-29T20:37:14.087Z,45.96
2023-03-29T20:39:40.728Z,46.10
2023-03-29T20:42:07.321Z,46.22
2023-03-29T20:44:35.322Z,46.81
2023-03-29T20:47:02.044Z,46.53
2023-03-29T20:49:28.639Z,46.56
2023-03-29T20:51:55.258Z,46.80
2023-03-29T20:54:21.808Z,46.35
2023-03-29T20:56:48.448Z,46.70
2023-03-29T20:59:15.101Z,47.00
2023-03-29T21:01:41.682Z,47.45
2023-03-29T21:04:08.281Z,47.24
2023-03-29T21:06:34.874Z,47.30
2023-03-29T21:09:01.460Z,47.71
2023-03-29T21:11:29.661Z,47.49
2023-03-29T21:13:56.283Z,47.66
2023-03-29T21:16:23.084Z,47.90
2023-03-29T21:18:49.739Z,48.64
2023-03-29T21:21:16.319Z,48.11
2023-03-29T21:23:42.981Z,48.03
2023-03-29T21:26:09.604Z,48.26
2023-03-29T21:28:36.180Z,47.86
2023-03-29T21:31:02.978Z,47.94
2023-03-29T21:33:29.800Z,48.38
2023-03-29T21:35:56.485Z,49.39
2023-03-29T21:38:23.071Z,49.08
2023-03-29T21:40:49.619Z,48.57
2023-03-29T21:43:16.177Z,48.85
2023-03-29T21:45:42.844Z,50.08
2023-03-29T21:48:09.530Z,49.99
2023-03-29T21:50:36.147Z,49.31
2023-03-29T21:53:02.711Z,48.46
2023-03-29T21:55:29.274Z,48.85
2023-03-29T21:57:55.846Z,49.13
2023-03-29T22:00:22.418Z,48.91
2023-03-29T22:02:49.035Z,50.14
2023-03-29T22:05:15.662Z,49.87
2023-03-29T22:07:42.202Z,49.40
2023-03-29T22:10:08.791Z,50.34
2023-03-29T22:12:35.370Z,51.12
2023-03-29T22:15:01.997Z,51.03
2023-03-29T22:17:28.617Z,50.09
2023-03-29T22:19:55.264Z,51.07
2023-03-29T22:22:21.803Z,51.11
2023-03-29T22:24:48.361Z,51.25
2023-03-29T22:27:14.939Z,51.39
2023-03-29T22:29:41.479Z,51.17
2023-03-29T22:32:08.149Z,50.85
2023-03-29T22:34:34.856Z,50.71
2023-03-29T22:37:01.468Z,50.86
2023-03-29T22:39:28.048Z,51.36
2023-03-29T22:41:54.623Z,51.85
2023-03-29T22:44:21.197Z,51.34
2023-03-29T22:46:47.876Z,51.78
2023-03-29T22:49:14.422Z,51.66
2023-03-29T22:51:41.271Z,52.66
2023-03-29T22:54:07.869Z,51.56
2023-03-29T22:56:34.422Z,52.27
2023-03-29T22:59:01.028Z,51.13
2023-03-29T23:01:27.760Z,51.64
2023-03-29T23:03:54.383Z,50.70
2023-03-29T23:06:20.997Z,50.17
2023-03-29T23:08:47.584Z,50.27
2023-03-29T23:11:14.164Z,51.83
2023-03-29T23:13:40.729Z,50.75
2023-03-29T23:16:07.295Z,50.99
2023-03-29T23:18:33.882Z,51.21
2023-03-29T23:21:00.440Z,51.64
2023-03-29T23:23:27.109Z,51.53
2023-03-29T23:25:53.666Z,51.18
2023-03-29T23:28:20.251Z,50.78
2023-03-29T23:30:46.818Z,50.95
2023-03-29T23:33:13.366Z,50.61
2023-03-29T23:35:40.006Z,51.08
2023-03-29T23:38:06.598Z,51.13
2023-03-29T23:40:33.180Z,50.80
2023-03-29T23:42:59.902Z,51.03
2023-03-29T23:45:26.527Z,50.56
2023-03-29T23:47:53.142Z,50.75
2023-03-29T23:50:19.701Z,50.49
2023-03-29T23:52:46.273Z,50.45
2023-03-29T23:55:12.819Z,52.00
2023-03-29T23:57:39.390Z,51.81
